Disclaimer

Please do not use the information listed here in-flight or in-navigation, as they are not provided to us by the airports but are provided by volunteers, so they might be outdated.

Search


Regions


Airport information page

Radio informations:
MALEK TWR - 118.7 MHz
Ground (GND) - 121.7 MHz

Airport informations:
Latitude: 08° 23' 27.61" N
Longitude: 082° 26' 05.97" W
Elevation: 89 feet - 27 meters
Operating hours: Remarks
Operating agency: Civil government, landing fees and diplomatic clearance may be required
Timezone: UTC-5
Fuel: Jet A, without icing inhibitor.

Runway information:
04/22 - 6890 x 148 feet< - >2100 x 45 meters

Recent METARs:
MPDA 162300Z 20007KT 9999 FEW020 SCT100 29/25 Q1006
MPDA 162300Z 20007KT 9999 FEW020 SCT100 29/25 Q1006
MPDA 170000Z 24003KT 9999 FEW020 SCT100 27/25 Q1007

Airport on the map: